sensor_id;sensor_type;location;lat;lon;timestamp;P1;durP1;ratioP1;P2;durP2;ratioP2
10902;SDS011;5504;47.312;11.060;2023-02-28T00:00:21;11.93;;;9.87;;
10902;SDS011;5504;47.312;11.060;2023-02-28T00:02:47;11.70;;;10.00;;
10902;SDS011;5504;47.312;11.060;2023-02-28T00:05:15;13.30;;;10.30;;
10902;SDS011;5504;47.312;11.060;2023-02-28T00:07:43;12.27;;;10.40;;
10902;SDS011;5504;47.312;11.060;2023-02-28T00:10:09;12.10;;;10.27;;
10902;SDS011;5504;47.312;11.060;2023-02-28T00:12:38;11.20;;;9.97;;
10902;SDS011;5504;47.312;11.060;2023-02-28T00:15:08;11.27;;;10.07;;
10902;SDS011;5504;47.312;11.060;2023-02-28T00:17:35;12.97;;;10.20;;
10902;SDS011;5504;47.312;11.060;2023-02-28T00:20:01;12.73;;;10.40;;
10902;SDS011;5504;47.312;11.060;2023-02-28T00:22:30;11.60;;;10.40;;
10902;SDS011;5504;47.312;11.060;2023-02-28T00:24:55;15.03;;;11.13;;
10902;SDS011;5504;47.312;11.060;2023-02-28T00:27:21;14.33;;;10.47;;
10902;SDS011;5504;47.312;11.060;2023-02-28T00:29:47;12.27;;;10.30;;
10902;SDS011;5504;47.312;11.060;2023-02-28T00:32:13;11.20;;;10.00;;
10902;SDS011;5504;47.312;11.060;2023-02-28T00:34:39;12.63;;;10.20;;
10902;SDS011;5504;47.312;11.060;2023-02-28T00:37:05;11.50;;;9.67;;
10902;SDS011;5504;47.312;11.060;2023-02-28T00:39:35;14.83;;;10.93;;
10902;SDS011;5504;47.312;11.060;2023-02-28T00:42:02;13.37;;;10.40;;
10902;SDS011;5504;47.312;11.060;2023-02-28T00:44:28;13.77;;;10.53;;
10902;SDS011;5504;47.312;11.060;2023-02-28T00:46:55;12.97;;;10.57;;
10902;SDS011;5504;47.312;11.060;2023-02-28T00:49:22;12.57;;;10.50;;
10902;SDS011;5504;47.312;11.060;2023-02-28T00:51:48;13.63;;;10.97;;
10902;SDS011;5504;47.312;11.060;2023-02-28T00:54:14;12.30;;;10.53;;
10902;SDS011;5504;47.312;11.060;2023-02-28T00:56:39;12.90;;;10.17;;
10902;SDS011;5504;47.312;11.060;2023-02-28T00:59:05;12.13;;;9.77;;
10902;SDS011;5504;47.312;11.060;2023-02-28T01:01:31;14.63;;;10.17;;
10902;SDS011;5504;47.312;11.060;2023-02-28T01:03:57;12.97;;;10.77;;
10902;SDS011;5504;47.312;11.060;2023-02-28T01:06:22;11.77;;;10.13;;
10902;SDS011;5504;47.312;11.060;2023-02-28T01:08:48;11.90;;;10.03;;
10902;SDS011;5504;47.312;11.060;2023-02-28T01:11:15;11.43;;;9.97;;
10902;SDS011;5504;47.312;11.060;2023-02-28T01:13:42;11.90;;;10.53;;
10902;SDS011;5504;47.312;11.060;2023-02-28T01:16:08;13.30;;;11.00;;
10902;SDS011;5504;47.312;11.060;2023-02-28T01:18:35;11.87;;;10.60;;
10902;SDS011;5504;47.312;11.060;2023-02-28T01:21:09;12.80;;;10.40;;
10902;SDS011;5504;47.312;11.060;2023-02-28T01:23:37;12.20;;;10.27;;
10902;SDS011;5504;47.312;11.060;2023-02-28T01:26:07;14.07;;;11.03;;
10902;SDS011;5504;47.312;11.060;2023-02-28T01:28:35;13.30;;;10.40;;
10902;SDS011;5504;47.312;11.060;2023-02-28T01:31:01;11.97;;;10.23;;
10902;SDS011;5504;47.312;11.060;2023-02-28T01:33:27;13.20;;;10.70;;
10902;SDS011;5504;47.312;11.060;2023-02-28T01:35:57;13.57;;;11.20;;
10902;SDS011;5504;47.312;11.060;2023-02-28T01:38:28;13.33;;;10.80;;
10902;SDS011;5504;47.312;11.060;2023-02-28T01:40:54;13.27;;;11.10;;
10902;SDS011;5504;47.312;11.060;2023-02-28T01:43:31;13.63;;;10.90;;
10902;SDS011;5504;47.312;11.060;2023-02-28T01:46:16;13.03;;;10.67;;
10902;SDS011;5504;47.312;11.060;2023-02-28T01:48:48;13.07;;;10.90;;
10902;SDS011;5504;47.312;11.060;2023-02-28T01:54:02;12.67;;;10.23;;
10902;SDS011;5504;47.312;11.060;2023-02-28T01:56:38;11.73;;;10.43;;
10902;SDS011;5504;47.312;11.060;2023-02-28T01:59:27;13.73;;;11.03;;
10902;SDS011;5504;47.312;11.060;2023-02-28T02:02:14;13.03;;;10.53;;
10902;SDS011;5504;47.312;11.060;2023-02-28T02:04:59;12.90;;;10.50;;
10902;SDS011;5504;47.312;11.060;2023-02-28T02:07:36;13.57;;;11.00;;
10902;SDS011;5504;47.312;11.060;2023-02-28T02:10:11;12.37;;;11.07;;
10902;SDS011;5504;47.312;11.060;2023-02-28T02:15:48;12.33;;;10.50;;
10902;SDS011;5504;47.312;11.060;2023-02-28T02:21:32;14.33;;;11.37;;
10902;SDS011;5504;47.312;11.060;2023-02-28T02:24:27;13.50;;;11.00;;
10902;SDS011;5504;47.312;11.060;2023-02-28T02:32:44;14.67;;;11.67;;
10902;SDS011;5504;47.312;11.060;2023-02-28T02:35:34;14.17;;;10.97;;
10902;SDS011;5504;47.312;11.060;2023-02-28T02:44:01;13.83;;;11.53;;
10902;SDS011;5504;47.312;11.060;2023-02-28T02:48:59;15.63;;;12.00;;
10902;SDS011;5504;47.312;11.060;2023-02-28T02:51:28;13.50;;;10.73;;
10902;SDS011;5504;47.312;11.060;2023-02-28T02:54:00;15.43;;;11.50;;
10902;SDS011;5504;47.312;11.060;2023-02-28T02:56:31;13.57;;;11.03;;
10902;SDS011;5504;47.312;11.060;2023-02-28T02:59:02;12.77;;;10.87;;
10902;SDS011;5504;47.312;11.060;2023-02-28T03:01:32;14.97;;;11.40;;
10902;SDS011;5504;47.312;11.060;2023-02-28T03:04:04;13.50;;;11.77;;
10902;SDS011;5504;47.312;11.060;2023-02-28T03:06:33;13.53;;;11.07;;
10902;SDS011;5504;47.312;11.060;2023-02-28T03:09:00;12.80;;;10.80;;
10902;SDS011;5504;47.312;11.060;2023-02-28T03:11:26;13.90;;;11.17;;
10902;SDS011;5504;47.312;11.060;2023-02-28T03:21:59;12.17;;;10.20;;
10902;SDS011;5504;47.312;11.060;2023-02-28T03:27:21;13.90;;;11.50;;
10902;SDS011;5504;47.312;11.060;2023-02-28T03:30:22;15.60;;;12.23;;
10902;SDS011;5504;47.312;11.060;2023-02-28T03:35:47;14.67;;;11.87;;
10902;SDS011;5504;47.312;11.060;2023-02-28T03:38:31;14.33;;;11.13;;
10902;SDS011;5504;47.312;11.060;2023-02-28T03:41:06;13.33;;;11.40;;
10902;SDS011;5504;47.312;11.060;2023-02-28T03:43:41;13.57;;;11.37;;
10902;SDS011;5504;47.312;11.060;2023-02-28T03:46:13;13.70;;;11.43;;
10902;SDS011;5504;47.312;11.060;2023-02-28T03:48:43;15.30;;;12.07;;
10902;SDS011;5504;47.312;11.060;2023-02-28T03:51:15;15.03;;;12.10;;
10902;SDS011;5504;47.312;11.060;2023-02-28T03:53:49;14.77;;;12.30;;
10902;SDS011;5504;47.312;11.060;2023-02-28T03:56:19;14.50;;;11.53;;
10902;SDS011;5504;47.312;11.060;2023-02-28T04:02:02;15.17;;;11.83;;
10902;SDS011;5504;47.312;11.060;2023-02-28T04:04:28;13.03;;;10.90;;
10902;SDS011;5504;47.312;11.060;2023-02-28T04:07:00;13.97;;;10.87;;
10902;SDS011;5504;47.312;11.060;2023-02-28T04:09:31;15.87;;;11.53;;
10902;SDS011;5504;47.312;11.060;2023-02-28T04:11:56;13.30;;;10.60;;
10902;SDS011;5504;47.312;11.060;2023-02-28T04:14:23;14.37;;;11.83;;
10902;SDS011;5504;47.312;11.060;2023-02-28T04:16:49;17.03;;;12.33;;
10902;SDS011;5504;47.312;11.060;2023-02-28T04:19:16;17.60;;;12.33;;
10902;SDS011;5504;47.312;11.060;2023-02-28T04:21:49;17.57;;;13.23;;
10902;SDS011;5504;47.312;11.060;2023-02-28T04:24:23;18.30;;;12.93;;
10902;SDS011;5504;47.312;11.060;2023-02-28T04:26:50;16.27;;;12.23;;
10902;SDS011;5504;47.312;11.060;2023-02-28T04:29:28;17.80;;;12.70;;
10902;SDS011;5504;47.312;11.060;2023-02-28T04:31:56;15.90;;;12.00;;
10902;SDS011;5504;47.312;11.060;2023-02-28T04:34:23;16.13;;;12.17;;
10902;SDS011;5504;47.312;11.060;2023-02-28T04:36:50;14.17;;;11.67;;
10902;SDS011;5504;47.312;11.060;2023-02-28T04:39:19;18.00;;;12.40;;
10902;SDS011;5504;47.312;11.060;2023-02-28T04:41:46;16.40;;;11.53;;
10902;SDS011;5504;47.312;11.060;2023-02-28T04:44:12;14.23;;;11.67;;
10902;SDS011;5504;47.312;11.060;2023-02-28T04:46:38;15.57;;;12.30;;
10902;SDS011;5504;47.312;11.060;2023-02-28T04:49:04;15.97;;;12.27;;
10902;SDS011;5504;47.312;11.060;2023-02-28T04:51:30;14.63;;;11.73;;
10902;SDS011;5504;47.312;11.060;2023-02-28T04:53:56;17.73;;;12.97;;
10902;SDS011;5504;47.312;11.060;2023-02-28T04:56:21;15.57;;;12.23;;
10902;SDS011;5504;47.312;11.060;2023-02-28T04:58:47;17.07;;;12.77;;
10902;SDS011;5504;47.312;11.060;2023-02-28T05:03:46;17.27;;;12.33;;
10902;SDS011;5504;47.312;11.060;2023-02-28T05:06:12;15.57;;;12.40;;
10902;SDS011;5504;47.312;11.060;2023-02-28T05:08:38;16.20;;;12.77;;
10902;SDS011;5504;47.312;11.060;2023-02-28T05:11:06;16.73;;;12.57;;
10902;SDS011;5504;47.312;11.060;2023-02-28T05:13:36;18.00;;;12.63;;
10902;SDS011;5504;47.312;11.060;2023-02-28T05:16:02;16.67;;;12.73;;
10902;SDS011;5504;47.312;11.060;2023-02-28T05:18:28;16.40;;;12.03;;
10902;SDS011;5504;47.312;11.060;2023-02-28T05:20:53;15.67;;;12.23;;
10902;SDS011;5504;47.312;11.060;2023-02-28T05:23:19;17.30;;;12.50;;
10902;SDS011;5504;47.312;11.060;2023-02-28T05:25:47;15.10;;;12.10;;
10902;SDS011;5504;47.312;11.060;2023-02-28T05:28:13;16.23;;;12.43;;
10902;SDS011;5504;47.312;11.060;2023-02-28T05:30:39;16.43;;;12.43;;
10902;SDS011;5504;47.312;11.060;2023-02-28T05:33:05;17.70;;;13.17;;
10902;SDS011;5504;47.312;11.060;2023-02-28T05:35:30;17.10;;;12.93;;
10902;SDS011;5504;47.312;11.060;2023-02-28T05:37:57;17.30;;;12.33;;
10902;SDS011;5504;47.312;11.060;2023-02-28T05:40:22;17.37;;;12.63;;
10902;SDS011;5504;47.312;11.060;2023-02-28T05:42:49;17.67;;;12.77;;
10902;SDS011;5504;47.312;11.060;2023-02-28T05:45:15;17.67;;;12.57;;
10902;SDS011;5504;47.312;11.060;2023-02-28T05:47:42;17.70;;;13.10;;
10902;SDS011;5504;47.312;11.060;2023-02-28T05:50:08;17.97;;;12.77;;
10902;SDS011;5504;47.312;11.060;2023-02-28T05:52:35;15.30;;;11.37;;
10902;SDS011;5504;47.312;11.060;2023-02-28T05:55:02;15.40;;;12.37;;
10902;SDS011;5504;47.312;11.060;2023-02-28T05:57:28;15.97;;;11.53;;
10902;SDS011;5504;47.312;11.060;2023-02-28T05:59:54;15.53;;;11.90;;
10902;SDS011;5504;47.312;11.060;2023-02-28T06:02:19;15.70;;;11.60;;
10902;SDS011;5504;47.312;11.060;2023-02-28T06:04:45;16.13;;;11.93;;
10902;SDS011;5504;47.312;11.060;2023-02-28T06:07:11;16.00;;;11.97;;
10902;SDS011;5504;47.312;11.060;2023-02-28T06:09:37;15.47;;;11.67;;
10902;SDS011;5504;47.312;11.060;2023-02-28T06:12:04;16.63;;;12.67;;
10902;SDS011;5504;47.312;11.060;2023-02-28T06:14:32;16.43;;;12.00;;
10902;SDS011;5504;47.312;11.060;2023-02-28T06:16:59;17.60;;;13.50;;
10902;SDS011;5504;47.312;11.060;2023-02-28T06:19:26;17.63;;;13.20;;
10902;SDS011;5504;47.312;11.060;2023-02-28T06:21:53;16.83;;;13.17;;
10902;SDS011;5504;47.312;11.060;2023-02-28T06:24:20;19.47;;;13.83;;
10902;SDS011;5504;47.312;11.060;2023-02-28T06:26:47;17.37;;;13.27;;
10902;SDS011;5504;47.312;11.060;2023-02-28T06:29:13;17.80;;;12.93;;
10902;SDS011;5504;47.312;11.060;2023-02-28T06:31:42;18.37;;;12.90;;
10902;SDS011;5504;47.312;11.060;2023-02-28T06:34:09;17.47;;;12.87;;
10902;SDS011;5504;47.312;11.060;2023-02-28T06:36:37;15.83;;;12.63;;
10902;SDS011;5504;47.312;11.060;2023-02-28T06:39:03;16.73;;;12.60;;
10902;SDS011;5504;47.312;11.060;2023-02-28T06:41:29;18.13;;;12.33;;
10902;SDS011;5504;47.312;11.060;2023-02-28T06:43:55;18.60;;;13.13;;
10902;SDS011;5504;47.312;11.060;2023-02-28T06:46:21;17.33;;;12.40;;
10902;SDS011;5504;47.312;11.060;2023-02-28T06:48:47;16.33;;;12.40;;
10902;SDS011;5504;47.312;11.060;2023-02-28T06:51:14;16.43;;;12.47;;
10902;SDS011;5504;47.312;11.060;2023-02-28T06:53:42;17.67;;;12.47;;
10902;SDS011;5504;47.312;11.060;2023-02-28T06:56:12;19.53;;;12.80;;
10902;SDS011;5504;47.312;11.060;2023-02-28T06:58:39;16.90;;;12.33;;
10902;SDS011;5504;47.312;11.060;2023-02-28T07:01:06;16.40;;;12.40;;
10902;SDS011;5504;47.312;11.060;2023-02-28T07:03:32;17.00;;;12.70;;
10902;SDS011;5504;47.312;11.060;2023-02-28T07:05:59;16.33;;;12.50;;
10902;SDS011;5504;47.312;11.060;2023-02-28T07:08:26;15.13;;;12.20;;
10902;SDS011;5504;47.312;11.060;2023-02-28T07:10:52;18.43;;;13.20;;
10902;SDS011;5504;47.312;11.060;2023-02-28T07:13:21;18.87;;;14.13;;
10902;SDS011;5504;47.312;11.060;2023-02-28T07:16:01;18.10;;;14.23;;
10902;SDS011;5504;47.312;11.060;2023-02-28T07:18:28;17.60;;;14.00;;
10902;SDS011;5504;47.312;11.060;2023-02-28T07:20:54;17.40;;;14.43;;
10902;SDS011;5504;47.312;11.060;2023-02-28T07:23:20;20.97;;;15.27;;
10902;SDS011;5504;47.312;11.060;2023-02-28T07:25:46;20.37;;;16.00;;
10902;SDS011;5504;47.312;11.060;2023-02-28T07:28:12;21.70;;;17.13;;
10902;SDS011;5504;47.312;11.060;2023-02-28T07:30:38;21.17;;;16.87;;
10902;SDS011;5504;47.312;11.060;2023-02-28T07:33:04;23.60;;;17.97;;
10902;SDS011;5504;47.312;11.060;2023-02-28T07:35:31;19.60;;;15.53;;
10902;SDS011;5504;47.312;11.060;2023-02-28T07:37:59;17.70;;;14.37;;
10902;SDS011;5504;47.312;11.060;2023-02-28T07:40:25;16.60;;;13.97;;
10902;SDS011;5504;47.312;11.060;2023-02-28T07:42:51;17.90;;;13.47;;
10902;SDS011;5504;47.312;11.060;2023-02-28T07:45:17;17.43;;;15.57;;
10902;SDS011;5504;47.312;11.060;2023-02-28T07:47:44;16.97;;;14.37;;
10902;SDS011;5504;47.312;11.060;2023-02-28T07:50:11;17.77;;;14.30;;
10902;SDS011;5504;47.312;11.060;2023-02-28T07:52:38;18.10;;;16.07;;
10902;SDS011;5504;47.312;11.060;2023-02-28T07:55:05;16.47;;;14.00;;
10902;SDS011;5504;47.312;11.060;2023-02-28T07:57:32;16.10;;;13.73;;
10902;SDS011;5504;47.312;11.060;2023-02-28T07:59:57;17.30;;;15.47;;
10902;SDS011;5504;47.312;11.060;2023-02-28T08:02:23;16.90;;;13.43;;
10902;SDS011;5504;47.312;11.060;2023-02-28T08:04:49;16.13;;;13.43;;
10902;SDS011;5504;47.312;11.060;2023-02-28T08:07:16;14.30;;;12.87;;
10902;SDS011;5504;47.312;11.060;2023-02-28T08:09:42;16.10;;;13.47;;
10902;SDS011;5504;47.312;11.060;2023-02-28T08:12:09;17.13;;;14.53;;
10902;SDS011;5504;47.312;11.060;2023-02-28T08:14:35;16.17;;;13.90;;
10902;SDS011;5504;47.312;11.060;2023-02-28T08:17:01;18.20;;;14.43;;
10902;SDS011;5504;47.312;11.060;2023-02-28T08:19:28;17.20;;;14.07;;
10902;SDS011;5504;47.312;11.060;2023-02-28T08:21:54;16.17;;;13.97;;
10902;SDS011;5504;47.312;11.060;2023-02-28T08:24:20;16.97;;;13.77;;
10902;SDS011;5504;47.312;11.060;2023-02-28T08:26:46;18.30;;;14.77;;
10902;SDS011;5504;47.312;11.060;2023-02-28T08:29:11;17.30;;;14.33;;
10902;SDS011;5504;47.312;11.060;2023-02-28T08:31:37;16.63;;;13.67;;
10902;SDS011;5504;47.312;11.060;2023-02-28T08:34:09;19.03;;;15.17;;
10902;SDS011;5504;47.312;11.060;2023-02-28T08:36:37;16.13;;;13.50;;
10902;SDS011;5504;47.312;11.060;2023-02-28T08:39:03;16.37;;;13.70;;
10902;SDS011;5504;47.312;11.060;2023-02-28T08:41:30;16.93;;;13.97;;
10902;SDS011;5504;47.312;11.060;2023-02-28T08:43:55;15.53;;;13.80;;
10902;SDS011;5504;47.312;11.060;2023-02-28T08:46:22;16.63;;;14.27;;
10902;SDS011;5504;47.312;11.060;2023-02-28T08:48:50;15.07;;;13.47;;
10902;SDS011;5504;47.312;11.060;2023-02-28T08:51:17;16.73;;;13.70;;
10902;SDS011;5504;47.312;11.060;2023-02-28T08:53:47;14.33;;;12.90;;
10902;SDS011;5504;47.312;11.060;2023-02-28T08:56:14;15.83;;;13.33;;
10902;SDS011;5504;47.312;11.060;2023-02-28T08:58:41;16.07;;;13.53;;
10902;SDS011;5504;47.312;11.060;2023-02-28T09:01:11;16.03;;;13.27;;
10902;SDS011;5504;47.312;11.060;2023-02-28T09:03:39;14.63;;;13.10;;
10902;SDS011;5504;47.312;11.060;2023-02-28T09:06:06;16.17;;;13.23;;
10902;SDS011;5504;47.312;11.060;2023-02-28T09:08:33;14.40;;;12.90;;
10902;SDS011;5504;47.312;11.060;2023-02-28T09:10:59;14.93;;;13.33;;
10902;SDS011;5504;47.312;11.060;2023-02-28T09:13:25;14.70;;;13.20;;
10902;SDS011;5504;47.312;11.060;2023-02-28T09:15:52;14.37;;;12.87;;
10902;SDS011;5504;47.312;11.060;2023-02-28T09:18:18;13.37;;;12.00;;
10902;SDS011;5504;47.312;11.060;2023-02-28T09:20:44;16.80;;;15.10;;
10902;SDS011;5504;47.312;11.060;2023-02-28T09:23:10;14.20;;;12.80;;
10902;SDS011;5504;47.312;11.060;2023-02-28T09:25:37;13.97;;;12.47;;
10902;SDS011;5504;47.312;11.060;2023-02-28T09:28:09;13.60;;;12.20;;
10902;SDS011;5504;47.312;11.060;2023-02-28T09:30:36;13.60;;;12.23;;
10902;SDS011;5504;47.312;11.060;2023-02-28T09:33:02;13.43;;;12.03;;
10902;SDS011;5504;47.312;11.060;2023-02-28T09:35:28;18.50;;;16.53;;
10902;SDS011;5504;47.312;11.060;2023-02-28T09:37:55;13.07;;;11.77;;
10902;SDS011;5504;47.312;11.060;2023-02-28T09:40:23;13.33;;;12.03;;
10902;SDS011;5504;47.312;11.060;2023-02-28T09:42:54;11.20;;;10.10;;
10902;SDS011;5504;47.312;11.060;2023-02-28T09:45:26;12.53;;;10.90;;
10902;SDS011;5504;47.312;11.060;2023-02-28T09:47:59;11.90;;;10.60;;
10902;SDS011;5504;47.312;11.060;2023-02-28T09:50:40;11.90;;;10.70;;
10902;SDS011;5504;47.312;11.060;2023-02-28T09:53:30;13.87;;;12.37;;
10902;SDS011;5504;47.312;11.060;2023-02-28T09:56:15;11.20;;;10.10;;
10902;SDS011;5504;47.312;11.060;2023-02-28T10:01:38;10.53;;;9.43;;
10902;SDS011;5504;47.312;11.060;2023-02-28T10:06:50;11.83;;;10.43;;
10902;SDS011;5504;47.312;11.060;2023-02-28T10:11:50;10.87;;;9.77;;
10902;SDS011;5504;47.312;11.060;2023-02-28T10:14:19;10.33;;;9.33;;
10902;SDS011;5504;47.312;11.060;2023-02-28T10:16:59;10.50;;;9.40;;
10902;SDS011;5504;47.312;11.060;2023-02-28T10:22:15;9.37;;;8.47;;
10902;SDS011;5504;47.312;11.060;2023-02-28T10:24:56;10.33;;;9.23;;
10902;SDS011;5504;47.312;11.060;2023-02-28T10:27:29;10.50;;;8.60;;
10902;SDS011;5504;47.312;11.060;2023-02-28T10:29:57;9.87;;;8.87;;
10902;SDS011;5504;47.312;11.060;2023-02-28T10:32:35;10.43;;;9.43;;
10902;SDS011;5504;47.312;11.060;2023-02-28T10:37:48;11.73;;;10.53;;
10902;SDS011;5504;47.312;11.060;2023-02-28T10:43:06;12.57;;;11.27;;
10902;SDS011;5504;47.312;11.060;2023-02-28T10:45:55;12.30;;;10.37;;
10902;SDS011;5504;47.312;11.060;2023-02-28T10:51:15;11.67;;;10.57;;
10902;SDS011;5504;47.312;11.060;2023-02-28T11:07:01;11.47;;;10.27;;
10902;SDS011;5504;47.312;11.060;2023-02-28T11:09:35;12.37;;;11.07;;
10902;SDS011;5504;47.312;11.060;2023-02-28T11:12:05;11.63;;;10.43;;
10902;SDS011;5504;47.312;11.060;2023-02-28T11:14:47;12.03;;;10.77;;
10902;SDS011;5504;47.312;11.060;2023-02-28T11:17:22;11.83;;;10.63;;
10902;SDS011;5504;47.312;11.060;2023-02-28T11:19:53;12.00;;;10.73;;
10902;SDS011;5504;47.312;11.060;2023-02-28T11:22:26;11.67;;;10.47;;
10902;SDS011;5504;47.312;11.060;2023-02-28T11:24:55;12.73;;;9.83;;
10902;SDS011;5504;47.312;11.060;2023-02-28T11:29:56;11.00;;;10.00;;
10902;SDS011;5504;47.312;11.060;2023-02-28T11:32:23;11.17;;;10.17;;
10902;SDS011;5504;47.312;11.060;2023-02-28T11:37:34;11.10;;;10.10;;
10902;SDS011;5504;47.312;11.060;2023-02-28T11:40:01;10.17;;;9.17;;
10902;SDS011;5504;47.312;11.060;2023-02-28T11:48:32;9.97;;;9.03;;
10902;SDS011;5504;47.312;11.060;2023-02-28T12:06:40;7.90;;;7.20;;
10902;SDS011;5504;47.312;11.060;2023-02-28T12:12:04;8.23;;;6.70;;
10902;SDS011;5504;47.312;11.060;2023-02-28T12:14:57;7.50;;;6.70;;
10902;SDS011;5504;47.312;11.060;2023-02-28T12:23:01;7.60;;;6.67;;
10902;SDS011;5504;47.312;11.060;2023-02-28T12:28:26;7.20;;;6.57;;
10902;SDS011;5504;47.312;11.060;2023-02-28T12:33:34;9.50;;;8.47;;
10902;SDS011;5504;47.312;11.060;2023-02-28T12:36:05;8.50;;;7.70;;
10902;SDS011;5504;47.312;11.060;2023-02-28T12:38:47;9.67;;;8.70;;
10902;SDS011;5504;47.312;11.060;2023-02-28T12:44:06;9.40;;;8.27;;
10902;SDS011;5504;47.312;11.060;2023-02-28T12:46:41;10.87;;;8.33;;
10902;SDS011;5504;47.312;11.060;2023-02-28T12:49:13;9.47;;;8.23;;
10902;SDS011;5504;47.312;11.060;2023-02-28T12:51:43;9.03;;;8.13;;
10902;SDS011;5504;47.312;11.060;2023-02-28T12:54:30;8.90;;;8.10;;
10902;SDS011;5504;47.312;11.060;2023-02-28T13:10:15;9.43;;;8.43;;
10902;SDS011;5504;47.312;11.060;2023-02-28T13:12:50;10.37;;;9.20;;
10902;SDS011;5504;47.312;11.060;2023-02-28T13:15:22;11.47;;;9.03;;
10902;SDS011;5504;47.312;11.060;2023-02-28T13:17:54;10.73;;;9.07;;
10902;SDS011;5504;47.312;11.060;2023-02-28T13:20:23;10.87;;;8.80;;
10902;SDS011;5504;47.312;11.060;2023-02-28T13:23:00;9.87;;;8.83;;
10902;SDS011;5504;47.312;11.060;2023-02-28T13:27:59;11.60;;;8.70;;
10902;SDS011;5504;47.312;11.060;2023-02-28T13:33:34;10.20;;;9.20;;
10902;SDS011;5504;47.312;11.060;2023-02-28T13:36:08;10.50;;;9.17;;
10902;SDS011;5504;47.312;11.060;2023-02-28T13:46:29;10.60;;;9.20;;
10902;SDS011;5504;47.312;11.060;2023-02-28T13:48:55;10.17;;;9.20;;
10902;SDS011;5504;47.312;11.060;2023-02-28T13:51:54;10.23;;;9.23;;
10902;SDS011;5504;47.312;11.060;2023-02-28T13:54:37;9.87;;;8.87;;
10902;SDS011;5504;47.312;11.060;2023-02-28T14:00:43;10.67;;;8.87;;
10902;SDS011;5504;47.312;11.060;2023-02-28T14:08:57;11.90;;;10.00;;
10902;SDS011;5504;47.312;11.060;2023-02-28T14:14:04;9.50;;;8.57;;
10902;SDS011;5504;47.312;11.060;2023-02-28T14:16:39;9.63;;;8.63;;
10902;SDS011;5504;47.312;11.060;2023-02-28T14:19:09;10.17;;;8.90;;
10902;SDS011;5504;47.312;11.060;2023-02-28T14:21:38;9.70;;;8.80;;
10902;SDS011;5504;47.312;11.060;2023-02-28T14:27:36;10.33;;;8.90;;
10902;SDS011;5504;47.312;11.060;2023-02-28T14:37:50;9.70;;;8.80;;
10902;SDS011;5504;47.312;11.060;2023-02-28T14:40:20;10.57;;;9.47;;
10902;SDS011;5504;47.312;11.060;2023-02-28T14:42:47;11.03;;;8.83;;
10902;SDS011;5504;47.312;11.060;2023-02-28T14:45:20;10.37;;;9.27;;
10902;SDS011;5504;47.312;11.060;2023-02-28T14:47:47;10.10;;;9.00;;
10902;SDS011;5504;47.312;11.060;2023-02-28T14:50:18;10.87;;;9.87;;
10902;SDS011;5504;47.312;11.060;2023-02-28T14:52:52;10.13;;;9.00;;
10902;SDS011;5504;47.312;11.060;2023-02-28T14:55:24;10.13;;;9.00;;
10902;SDS011;5504;47.312;11.060;2023-02-28T14:57:54;10.33;;;9.23;;
10902;SDS011;5504;47.312;11.060;2023-02-28T15:02:54;10.47;;;9.37;;
10902;SDS011;5504;47.312;11.060;2023-02-28T15:07:49;10.83;;;9.73;;
10902;SDS011;5504;47.312;11.060;2023-02-28T15:10:50;10.83;;;9.73;;
10902;SDS011;5504;47.312;11.060;2023-02-28T15:13:16;10.73;;;9.63;;
10902;SDS011;5504;47.312;11.060;2023-02-28T15:16:00;10.93;;;9.57;;
10902;SDS011;5504;47.312;11.060;2023-02-28T15:21:34;13.13;;;10.10;;
10902;SDS011;5504;47.312;11.060;2023-02-28T15:24:10;11.23;;;10.13;;
10902;SDS011;5504;47.312;11.060;2023-02-28T15:26:42;11.40;;;10.30;;
10902;SDS011;5504;47.312;11.060;2023-02-28T15:29:15;11.30;;;9.90;;
10902;SDS011;5504;47.312;11.060;2023-02-28T15:31:46;11.57;;;10.20;;
10902;SDS011;5504;47.312;11.060;2023-02-28T15:34:20;11.37;;;10.17;;
10902;SDS011;5504;47.312;11.060;2023-02-28T15:36:51;13.83;;;12.23;;
10902;SDS011;5504;47.312;11.060;2023-02-28T15:39:22;12.27;;;10.87;;
10902;SDS011;5504;47.312;11.060;2023-02-28T15:41:50;12.47;;;11.10;;
10902;SDS011;5504;47.312;11.060;2023-02-28T15:47:05;11.97;;;10.50;;
10902;SDS011;5504;47.312;11.060;2023-02-28T15:49:40;12.23;;;10.33;;
10902;SDS011;5504;47.312;11.060;2023-02-28T15:52:17;12.87;;;11.50;;
10902;SDS011;5504;47.312;11.060;2023-02-28T15:54:45;18.53;;;14.97;;
10902;SDS011;5504;47.312;11.060;2023-02-28T15:57:18;13.80;;;11.40;;
10902;SDS011;5504;47.312;11.060;2023-02-28T16:00:05;14.53;;;12.70;;
10902;SDS011;5504;47.312;11.060;2023-02-28T16:02:36;12.23;;;10.70;;
10902;SDS011;5504;47.312;11.060;2023-02-28T16:07:31;12.80;;;11.20;;
10902;SDS011;5504;47.312;11.060;2023-02-28T16:09:58;11.97;;;10.40;;
10902;SDS011;5504;47.312;11.060;2023-02-28T16:12:25;11.67;;;9.93;;
10902;SDS011;5504;47.312;11.060;2023-02-28T16:14:54;12.13;;;10.87;;
10902;SDS011;5504;47.312;11.060;2023-02-28T16:17:25;12.63;;;10.57;;
10902;SDS011;5504;47.312;11.060;2023-02-28T16:19:54;14.60;;;11.50;;
10902;SDS011;5504;47.312;11.060;2023-02-28T16:22:20;14.00;;;12.43;;
10902;SDS011;5504;47.312;11.060;2023-02-28T16:24:46;13.33;;;11.90;;
10902;SDS011;5504;47.312;11.060;2023-02-28T16:27:20;15.17;;;12.03;;
10902;SDS011;5504;47.312;11.060;2023-02-28T16:29:50;15.47;;;12.13;;
10902;SDS011;5504;47.312;11.060;2023-02-28T16:32:16;17.10;;;13.33;;
10902;SDS011;5504;47.312;11.060;2023-02-28T16:34:42;15.90;;;12.83;;
10902;SDS011;5504;47.312;11.060;2023-02-28T16:37:13;15.77;;;12.83;;
10902;SDS011;5504;47.312;11.060;2023-02-28T16:39:40;14.77;;;12.40;;
10902;SDS011;5504;47.312;11.060;2023-02-28T16:42:16;15.03;;;12.17;;
10902;SDS011;5504;47.312;11.060;2023-02-28T16:44:53;13.73;;;11.73;;
10902;SDS011;5504;47.312;11.060;2023-02-28T16:47:20;14.37;;;11.57;;
10902;SDS011;5504;47.312;11.060;2023-02-28T16:49:46;15.60;;;12.57;;
10902;SDS011;5504;47.312;11.060;2023-02-28T16:52:13;14.60;;;13.00;;
10902;SDS011;5504;47.312;11.060;2023-02-28T16:54:39;15.60;;;12.70;;
10902;SDS011;5504;47.312;11.060;2023-02-28T16:57:06;12.90;;;11.53;;
10902;SDS011;5504;47.312;11.060;2023-02-28T16:59:42;16.97;;;11.77;;
10902;SDS011;5504;47.312;11.060;2023-02-28T17:02:12;15.00;;;12.80;;
10902;SDS011;5504;47.312;11.060;2023-02-28T17:04:39;14.63;;;11.93;;
10902;SDS011;5504;47.312;11.060;2023-02-28T17:07:08;19.17;;;13.30;;
10902;SDS011;5504;47.312;11.060;2023-02-28T17:09:37;34.90;;;23.00;;
10902;SDS011;5504;47.312;11.060;2023-02-28T17:12:03;26.73;;;16.20;;
10902;SDS011;5504;47.312;11.060;2023-02-28T17:14:29;29.63;;;19.93;;
10902;SDS011;5504;47.312;11.060;2023-02-28T17:16:54;23.07;;;16.80;;
10902;SDS011;5504;47.312;11.060;2023-02-28T17:19:20;93.77;;;52.27;;
10902;SDS011;5504;47.312;11.060;2023-02-28T17:21:46;61.63;;;33.10;;
10902;SDS011;5504;47.312;11.060;2023-02-28T17:24:12;110.40;;;61.70;;
10902;SDS011;5504;47.312;11.060;2023-02-28T17:26:41;42.10;;;28.17;;
10902;SDS011;5504;47.312;11.060;2023-02-28T17:29:14;28.47;;;20.50;;
10902;SDS011;5504;47.312;11.060;2023-02-28T17:31:42;27.33;;;19.03;;
10902;SDS011;5504;47.312;11.060;2023-02-28T17:34:07;22.93;;;18.50;;
10902;SDS011;5504;47.312;11.060;2023-02-28T17:36:34;46.13;;;36.70;;
10902;SDS011;5504;47.312;11.060;2023-02-28T17:39:02;142.60;;;102.43;;